CheckWX is a tool to help pilots better visualize weather data.  It is not intended as a substitute for an official pre-flight weather briefing.

17:38:16 UTC

SABE TAF
Jorge Newbery Airpark Airport
Buenos Aires, Argentina
TAF SABE 201100Z 2012/2112 32005KT CAVOK TX36/2018Z TN24/2109Z BECMG 2013/2015 36010KT 9999 FEW040 BECMG 2017/2019 9999 SCT030 FEW050TCU PROB40 TEMPO 2020/2101 8000 TSRA BKN030 FEW040CB BECMG 2102/2105 9999 SCT030

Feb-20@
12:00 UTC

Feb-20 @ 12:00 UTC

Feb-20@
13:00 UTC

Feb-20 @ 13:00 UTC

TAF SABE 201100Z 2012/2112 32005KT CAVOK TX36/2018Z TN24/2109Z

Expired

Wind
  • 320° at 5 KTS
Visibility
10,000+ meters
Cloud Levels
  • No significant clouds

Feb-20@
13:00 UTC

Feb-20 @ 13:00 UTC

Feb-20@
17:00 UTC

Feb-20 @ 17:00 UTC

BECMG 2013/2015 36010KT 9999 FEW040

Expired

Wind
  • 360° at 10 KTS
Visibility
10,000+ meters
Cloud Levels
  • Few at 4,000' AGL

Feb-20@
17:00 UTC

Feb-20 @ 17:00 UTC

Feb-21@
02:00 UTC

Feb-21 @ 02:00 UTC

BECMG 2017/2019 9999 SCT030 FEW050TCU

Becoming

BecomingConditions expected by Wed, Feb 20, 2019 @ 19:00 UTC

Wind
  • 360° at 10 KTS
Visibility
10,000+ meters
Cloud Levels
  • Scattered at 3,000' AGL
  • Few at 5,000' AGL

Feb-20@
20:00 UTC

Feb-20 @ 20:00 UTC

Feb-21@
01:00 UTC

Feb-21 @ 01:00 UTC

PROB40 TEMPO 2020/2101 8000 TSRA BKN030 FEW040CB

Temporary - 40% Likelihood

Temporary - 40% Likelihood during this time.

Visibility
7,998 meters
Conditions
Thunderstorm, Rain
Cloud Levels
  • Broken at 3,000' AGL
  • Few at 4,000' AGL

Feb-21@
02:00 UTC

Feb-21 @ 02:00 UTC

Feb-21@
12:00 UTC

Feb-21 @ 12:00 UTC

BECMG 2102/2105 9999 SCT030

Becoming

BecomingConditions expected by Thu, Feb 21, 2019 @ 05:00 UTC

Wind
  • 360° at 10 KTS
Visibility
10,000+ meters
Cloud Levels
  • Scattered at 3,000' AGL